sensor_id;sensor_type;location;lat;lon;timestamp;pressure;altitude;pressure_sealevel;temperature
42197;BMP280;27866;48.146;17.098;2023-03-13T00:05:46;99593.19;;;10.60
42197;BMP280;27866;48.146;17.098;2023-03-13T00:09:57;99588.25;;;10.57
42197;BMP280;27866;48.146;17.098;2023-03-13T00:14:09;99588.84;;;10.61
42197;BMP280;27866;48.146;17.098;2023-03-13T00:18:20;99583.34;;;10.65
42197;BMP280;27866;48.146;17.098;2023-03-13T00:22:31;99568.91;;;10.73
42197;BMP280;27866;48.146;17.098;2023-03-13T00:26:43;99557.28;;;10.79
42197;BMP280;27866;48.146;17.098;2023-03-13T00:31:06;99545.72;;;10.72
42197;BMP280;27866;48.146;17.098;2023-03-13T00:35:17;99540.53;;;10.72
42197;BMP280;27866;48.146;17.098;2023-03-13T00:39:29;99534.75;;;10.69
42197;BMP280;27866;48.146;17.098;2023-03-13T00:43:42;99532.50;;;10.64
42197;BMP280;27866;48.146;17.098;2023-03-13T00:47:53;99543.28;;;10.58
42197;BMP280;27866;48.146;17.098;2023-03-13T00:52:05;99541.00;;;10.54
42197;BMP280;27866;48.146;17.098;2023-03-13T00:56:18;99529.03;;;10.53
42197;BMP280;27866;48.146;17.098;2023-03-13T01:00:29;99521.53;;;10.61
42197;BMP280;27866;48.146;17.098;2023-03-13T01:04:41;99530.41;;;10.69
42197;BMP280;27866;48.146;17.098;2023-03-13T01:08:53;99516.63;;;10.69
42197;BMP280;27866;48.146;17.098;2023-03-13T01:13:04;99501.94;;;10.69
42197;BMP280;27866;48.146;17.098;2023-03-13T01:17:16;99511.09;;;10.73
42197;BMP280;27866;48.146;17.098;2023-03-13T01:21:29;99508.03;;;10.68
42197;BMP280;27866;48.146;17.098;2023-03-13T01:25:40;99502.25;;;10.65
42197;BMP280;27866;48.146;17.098;2023-03-13T01:29:51;99500.59;;;10.64
42197;BMP280;27866;48.146;17.098;2023-03-13T01:34:05;99492.53;;;10.56
42197;BMP280;27866;48.146;17.098;2023-03-13T01:38:16;99493.47;;;10.44
42197;BMP280;27866;48.146;17.098;2023-03-13T01:42:28;99504.09;;;10.17
42197;BMP280;27866;48.146;17.098;2023-03-13T01:46:39;99492.38;;;9.89
42197;BMP280;27866;48.146;17.098;2023-03-13T01:50:54;99487.72;;;9.70
42197;BMP280;27866;48.146;17.098;2023-03-13T01:55:14;99502.31;;;9.47
42197;BMP280;27866;48.146;17.098;2023-03-13T01:59:49;99495.28;;;9.25
42197;BMP280;27866;48.146;17.098;2023-03-13T02:04:02;99495.91;;;9.16
42197;BMP280;27866;48.146;17.098;2023-03-13T02:12:53;99494.66;;;9.09
42197;BMP280;27866;48.146;17.098;2023-03-13T02:17:06;99506.50;;;8.99
42197;BMP280;27866;48.146;17.098;2023-03-13T02:21:42;99492.78;;;8.87
42197;BMP280;27866;48.146;17.098;2023-03-13T02:25:57;99483.38;;;8.86
42197;BMP280;27866;48.146;17.098;2023-03-13T02:30:16;99498.56;;;8.90
42197;BMP280;27866;48.146;17.098;2023-03-13T02:34:32;99496.91;;;9.01
42197;BMP280;27866;48.146;17.098;2023-03-13T02:39:01;99488.59;;;9.10
42197;BMP280;27866;48.146;17.098;2023-03-13T02:43:32;99500.69;;;9.22
42197;BMP280;27866;48.146;17.098;2023-03-13T02:47:45;99507.91;;;9.29
42197;BMP280;27866;48.146;17.098;2023-03-13T02:52:02;99503.78;;;9.39
42197;BMP280;27866;48.146;17.098;2023-03-13T02:56:17;99499.53;;;9.50
42197;BMP280;27866;48.146;17.098;2023-03-13T03:00:30;99500.34;;;9.62
42197;BMP280;27866;48.146;17.098;2023-03-13T03:04:42;99504.59;;;9.75
42197;BMP280;27866;48.146;17.098;2023-03-13T03:08:55;99508.94;;;9.87
42197;BMP280;27866;48.146;17.098;2023-03-13T03:13:10;99512.00;;;9.92
42197;BMP280;27866;48.146;17.098;2023-03-13T03:17:21;99531.25;;;10.00
42197;BMP280;27866;48.146;17.098;2023-03-13T03:21:33;99532.56;;;10.05
42197;BMP280;27866;48.146;17.098;2023-03-13T03:25:45;99530.09;;;10.04
42197;BMP280;27866;48.146;17.098;2023-03-13T03:29:56;99531.56;;;9.96
42197;BMP280;27866;48.146;17.098;2023-03-13T03:34:08;99533.94;;;9.99
42197;BMP280;27866;48.146;17.098;2023-03-13T03:38:19;99528.56;;;10.01
42197;BMP280;27866;48.146;17.098;2023-03-13T03:42:31;99532.69;;;10.04
42197;BMP280;27866;48.146;17.098;2023-03-13T03:46:43;99526.91;;;10.00
42197;BMP280;27866;48.146;17.098;2023-03-13T03:50:55;99523.19;;;9.92
42197;BMP280;27866;48.146;17.098;2023-03-13T03:55:08;99523.63;;;9.86
42197;BMP280;27866;48.146;17.098;2023-03-13T03:59:19;99522.81;;;9.86
42197;BMP280;27866;48.146;17.098;2023-03-13T04:03:33;99533.75;;;9.89
42197;BMP280;27866;48.146;17.098;2023-03-13T04:07:44;99526.72;;;9.91
42197;BMP280;27866;48.146;17.098;2023-03-13T04:11:56;99526.63;;;9.93
42197;BMP280;27866;48.146;17.098;2023-03-13T04:16:08;99527.22;;;9.96
42197;BMP280;27866;48.146;17.098;2023-03-13T04:20:20;99524.44;;;9.99
42197;BMP280;27866;48.146;17.098;2023-03-13T04:24:32;99523.81;;;9.96
42197;BMP280;27866;48.146;17.098;2023-03-13T04:28:44;99522.69;;;9.87
42197;BMP280;27866;48.146;17.098;2023-03-13T04:33:00;99524.03;;;9.81
42197;BMP280;27866;48.146;17.098;2023-03-13T04:37:18;99520.19;;;9.62
42197;BMP280;27866;48.146;17.098;2023-03-13T04:41:29;99527.13;;;9.37
42197;BMP280;27866;48.146;17.098;2023-03-13T04:45:52;99514.31;;;9.24
42197;BMP280;27866;48.146;17.098;2023-03-13T04:50:35;99517.72;;;9.24
42197;BMP280;27866;48.146;17.098;2023-03-13T04:55:07;99524.22;;;9.29
42197;BMP280;27866;48.146;17.098;2023-03-13T04:59:39;99517.22;;;9.43
42197;BMP280;27866;48.146;17.098;2023-03-13T05:04:20;99521.53;;;9.43
42197;BMP280;27866;48.146;17.098;2023-03-13T05:09:04;99515.06;;;9.50
42197;BMP280;27866;48.146;17.098;2023-03-13T05:13:36;99511.22;;;9.55
42197;BMP280;27866;48.146;17.098;2023-03-13T05:18:00;99509.97;;;9.60
42197;BMP280;27866;48.146;17.098;2023-03-13T05:22:41;99521.97;;;9.61
42197;BMP280;27866;48.146;17.098;2023-03-13T05:27:24;99508.72;;;9.66
42197;BMP280;27866;48.146;17.098;2023-03-13T05:31:53;99515.44;;;9.68
42197;BMP280;27866;48.146;17.098;2023-03-13T05:36:34;99516.28;;;9.69
42197;BMP280;27866;48.146;17.098;2023-03-13T05:41:00;99528.00;;;9.74
42197;BMP280;27866;48.146;17.098;2023-03-13T05:45:31;99523.63;;;9.86
42197;BMP280;27866;48.146;17.098;2023-03-13T05:50:00;99525.91;;;9.91
42197;BMP280;27866;48.146;17.098;2023-03-13T05:54:18;99522.16;;;10.07
42197;BMP280;27866;48.146;17.098;2023-03-13T05:59:01;99529.25;;;10.28
42197;BMP280;27866;48.146;17.098;2023-03-13T06:03:33;99538.03;;;10.25
42197;BMP280;27866;48.146;17.098;2023-03-13T06:07:44;99533.28;;;10.19
42197;BMP280;27866;48.146;17.098;2023-03-13T06:11:56;99517.09;;;10.28
42197;BMP280;27866;48.146;17.098;2023-03-13T06:16:07;99508.22;;;11.87
42197;BMP280;27866;48.146;17.098;2023-03-13T06:20:26;99503.53;;;17.59
42197;BMP280;27866;48.146;17.098;2023-03-13T06:24:38;99501.63;;;19.68
42197;BMP280;27866;48.146;17.098;2023-03-13T06:28:50;99509.06;;;21.43
42197;BMP280;27866;48.146;17.098;2023-03-13T06:33:01;99507.88;;;22.17
42197;BMP280;27866;48.146;17.098;2023-03-13T06:37:13;99498.53;;;23.92
42197;BMP280;27866;48.146;17.098;2023-03-13T06:41:24;99479.06;;;23.52
42197;BMP280;27866;48.146;17.098;2023-03-13T06:45:36;99492.22;;;21.87
42197;BMP280;27866;48.146;17.098;2023-03-13T06:49:47;99498.03;;;20.74
42197;BMP280;27866;48.146;17.098;2023-03-13T06:54:00;99490.28;;;21.46
42197;BMP280;27866;48.146;17.098;2023-03-13T06:58:11;99497.69;;;19.17
42197;BMP280;27866;48.146;17.098;2023-03-13T07:02:23;99496.59;;;17.09
42197;BMP280;27866;48.146;17.098;2023-03-13T07:06:34;99482.44;;;15.90
42197;BMP280;27866;48.146;17.098;2023-03-13T07:10:45;99500.00;;;15.97
42197;BMP280;27866;48.146;17.098;2023-03-13T07:14:58;99493.72;;;19.29
42197;BMP280;27866;48.146;17.098;2023-03-13T07:19:09;99484.38;;;21.00
42197;BMP280;27866;48.146;17.098;2023-03-13T07:23:25;99487.81;;;20.71
42197;BMP280;27866;48.146;17.098;2023-03-13T07:27:36;99475.91;;;20.08
42197;BMP280;27866;48.146;17.098;2023-03-13T07:31:48;99479.47;;;15.85
42197;BMP280;27866;48.146;17.098;2023-03-13T07:36:00;99482.63;;;14.23
42197;BMP280;27866;48.146;17.098;2023-03-13T07:40:11;99480.81;;;13.76
42197;BMP280;27866;48.146;17.098;2023-03-13T07:44:23;99471.47;;;17.40
42197;BMP280;27866;48.146;17.098;2023-03-13T07:48:38;99454.03;;;19.32
42197;BMP280;27866;48.146;17.098;2023-03-13T07:52:50;99450.16;;;16.60
42197;BMP280;27866;48.146;17.098;2023-03-13T07:57:02;99445.31;;;14.88
42197;BMP280;27866;48.146;17.098;2023-03-13T08:01:23;99426.97;;;18.29
42197;BMP280;27866;48.146;17.098;2023-03-13T08:05:34;99413.03;;;19.00
42197;BMP280;27866;48.146;17.098;2023-03-13T08:09:46;99396.50;;;19.83
42197;BMP280;27866;48.146;17.098;2023-03-13T08:13:57;99402.97;;;18.01
42197;BMP280;27866;48.146;17.098;2023-03-13T08:18:09;99417.13;;;18.24
42197;BMP280;27866;48.146;17.098;2023-03-13T08:22:20;99404.09;;;21.68
42197;BMP280;27866;48.146;17.098;2023-03-13T08:26:33;99388.25;;;25.97
42197;BMP280;27866;48.146;17.098;2023-03-13T08:30:44;99399.41;;;24.67
42197;BMP280;27866;48.146;17.098;2023-03-13T08:34:56;99399.56;;;22.87
42197;BMP280;27866;48.146;17.098;2023-03-13T08:39:16;99376.03;;;22.92
42197;BMP280;27866;48.146;17.098;2023-03-13T08:43:27;99389.03;;;21.26
42197;BMP280;27866;48.146;17.098;2023-03-13T08:47:38;99383.59;;;20.41
42197;BMP280;27866;48.146;17.098;2023-03-13T08:51:50;99379.31;;;20.02
42197;BMP280;27866;48.146;17.098;2023-03-13T08:56:01;99382.34;;;19.92
42197;BMP280;27866;48.146;17.098;2023-03-13T09:00:15;99366.78;;;20.12
42197;BMP280;27866;48.146;17.098;2023-03-13T09:04:26;99368.75;;;21.13
42197;BMP280;27866;48.146;17.098;2023-03-13T09:08:38;99352.81;;;21.42
42197;BMP280;27866;48.146;17.098;2023-03-13T09:12:49;99356.00;;;21.38
42197;BMP280;27866;48.146;17.098;2023-03-13T09:17:01;99353.31;;;20.23
42197;BMP280;27866;48.146;17.098;2023-03-13T09:21:20;99343.38;;;19.58
42197;BMP280;27866;48.146;17.098;2023-03-13T09:25:31;99346.59;;;19.07
42197;BMP280;27866;48.146;17.098;2023-03-13T09:29:42;99334.31;;;18.92
42197;BMP280;27866;48.146;17.098;2023-03-13T09:33:54;99329.91;;;18.62
42197;BMP280;27866;48.146;17.098;2023-03-13T09:38:05;99347.47;;;18.06
42197;BMP280;27866;48.146;17.098;2023-03-13T09:42:21;99331.19;;;17.79
42197;BMP280;27866;48.146;17.098;2023-03-13T09:47:33;99331.88;;;17.56
42197;BMP280;27866;48.146;17.098;2023-03-13T09:51:38;99334.53;;;17.32
42197;BMP280;27866;48.146;17.098;2023-03-13T09:55:52;99327.34;;;17.34
42197;BMP280;27866;48.146;17.098;2023-03-13T10:00:38;99321.91;;;17.60
42197;BMP280;27866;48.146;17.098;2023-03-13T10:09:29;99305.81;;;18.66
42197;BMP280;27866;48.146;17.098;2023-03-13T10:14:14;99289.13;;;19.20
42197;BMP280;27866;48.146;17.098;2023-03-13T10:18:28;99299.75;;;19.87
42197;BMP280;27866;48.146;17.098;2023-03-13T10:22:41;99288.72;;;20.42
42197;BMP280;27866;48.146;17.098;2023-03-13T10:26:56;99276.78;;;20.89
42197;BMP280;27866;48.146;17.098;2023-03-13T10:31:20;99268.34;;;21.72
42197;BMP280;27866;48.146;17.098;2023-03-13T10:35:39;99268.19;;;22.48
42197;BMP280;27866;48.146;17.098;2023-03-13T10:39:52;99266.28;;;22.83
42197;BMP280;27866;48.146;17.098;2023-03-13T10:44:06;99277.88;;;23.08
42197;BMP280;27866;48.146;17.098;2023-03-13T10:48:29;99273.31;;;24.91
42197;BMP280;27866;48.146;17.098;2023-03-13T10:52:48;99279.81;;;24.76
42197;BMP280;27866;48.146;17.098;2023-03-13T11:01:40;99260.78;;;22.58
42197;BMP280;27866;48.146;17.098;2023-03-13T11:06:01;99225.63;;;21.20
42197;BMP280;27866;48.146;17.098;2023-03-13T11:10:31;99197.47;;;20.92
42197;BMP280;27866;48.146;17.098;2023-03-13T11:14:59;99206.84;;;20.95
42197;BMP280;27866;48.146;17.098;2023-03-13T11:23:54;99173.69;;;21.77
42197;BMP280;27866;48.146;17.098;2023-03-13T11:28:42;99195.44;;;21.64
42197;BMP280;27866;48.146;17.098;2023-03-13T11:33:04;99185.09;;;21.01
42197;BMP280;27866;48.146;17.098;2023-03-13T11:37:22;99176.88;;;20.82
42197;BMP280;27866;48.146;17.098;2023-03-13T11:42:15;99174.41;;;20.94
42197;BMP280;27866;48.146;17.098;2023-03-13T11:46:46;99184.25;;;21.00
42197;BMP280;27866;48.146;17.098;2023-03-13T11:51:26;99179.63;;;20.52
42197;BMP280;27866;48.146;17.098;2023-03-13T11:56:14;99181.97;;;20.12
42197;BMP280;27866;48.146;17.098;2023-03-13T12:05:07;99174.00;;;19.54
42197;BMP280;27866;48.146;17.098;2023-03-13T12:09:43;99177.78;;;19.52
42197;BMP280;27866;48.146;17.098;2023-03-13T12:14:09;99163.47;;;19.54
42197;BMP280;27866;48.146;17.098;2023-03-13T12:18:38;99159.47;;;19.66
42197;BMP280;27866;48.146;17.098;2023-03-13T12:23:22;99149.19;;;20.22
42197;BMP280;27866;48.146;17.098;2023-03-13T12:27:57;99153.38;;;21.22
42197;BMP280;27866;48.146;17.098;2023-03-13T12:37:25;99139.75;;;20.91
42197;BMP280;27866;48.146;17.098;2023-03-13T12:41:44;99131.19;;;20.11
42197;BMP280;27866;48.146;17.098;2023-03-13T12:59:46;99111.09;;;20.82
42197;BMP280;27866;48.146;17.098;2023-03-13T13:04:14;99101.97;;;21.12
42197;BMP280;27866;48.146;17.098;2023-03-13T13:08:38;99095.94;;;21.32
42197;BMP280;27866;48.146;17.098;2023-03-13T13:17:42;99063.13;;;20.86
42197;BMP280;27866;48.146;17.098;2023-03-13T13:26:48;99068.78;;;20.41
42197;BMP280;27866;48.146;17.098;2023-03-13T13:31:01;99056.44;;;20.14
42197;BMP280;27866;48.146;17.098;2023-03-13T13:44:23;99034.53;;;20.21
42197;BMP280;27866;48.146;17.098;2023-03-13T13:48:37;99021.78;;;19.96
42197;BMP280;27866;48.146;17.098;2023-03-13T13:52:50;99022.09;;;19.93
42197;BMP280;27866;48.146;17.098;2023-03-13T13:57:15;99009.22;;;19.84
42197;BMP280;27866;48.146;17.098;2023-03-13T14:01:28;99009.50;;;19.75
42197;BMP280;27866;48.146;17.098;2023-03-13T14:05:40;98998.53;;;19.86
42197;BMP280;27866;48.146;17.098;2023-03-13T14:14:26;98995.75;;;19.87
42197;BMP280;27866;48.146;17.098;2023-03-13T14:18:41;98979.13;;;19.73
42197;BMP280;27866;48.146;17.098;2023-03-13T14:22:58;98970.81;;;19.69
42197;BMP280;27866;48.146;17.098;2023-03-13T14:27:16;98964.75;;;19.83
42197;BMP280;27866;48.146;17.098;2023-03-13T14:31:34;98962.03;;;20.04
42197;BMP280;27866;48.146;17.098;2023-03-13T14:35:47;98960.59;;;20.16
42197;BMP280;27866;48.146;17.098;2023-03-13T14:40:06;98956.53;;;20.28
42197;BMP280;27866;48.146;17.098;2023-03-13T14:44:28;98940.19;;;20.46
42197;BMP280;27866;48.146;17.098;2023-03-13T14:48:40;98923.41;;;20.47
42197;BMP280;27866;48.146;17.098;2023-03-13T14:52:56;98927.88;;;20.18
42197;BMP280;27866;48.146;17.098;2023-03-13T15:01:25;98919.56;;;19.87
42197;BMP280;27866;48.146;17.098;2023-03-13T15:05:37;98931.22;;;19.71
42197;BMP280;27866;48.146;17.098;2023-03-13T15:09:50;98911.03;;;19.71
42197;BMP280;27866;48.146;17.098;2023-03-13T15:14:02;98913.34;;;19.52
42197;BMP280;27866;48.146;17.098;2023-03-13T15:18:25;98896.41;;;19.41
42197;BMP280;27866;48.146;17.098;2023-03-13T15:22:40;98885.41;;;19.37
42197;BMP280;27866;48.146;17.098;2023-03-13T15:26:52;98885.28;;;19.31
42197;BMP280;27866;48.146;17.098;2023-03-13T15:31:04;98884.97;;;19.34
42197;BMP280;27866;48.146;17.098;2023-03-13T15:35:29;98873.06;;;19.24
42197;BMP280;27866;48.146;17.098;2023-03-13T15:39:41;98868.44;;;19.26
42197;BMP280;27866;48.146;17.098;2023-03-13T15:43:52;98868.81;;;19.23
42197;BMP280;27866;48.146;17.098;2023-03-13T15:48:15;98870.63;;;19.22
42197;BMP280;27866;48.146;17.098;2023-03-13T15:52:28;98865.72;;;19.19
42197;BMP280;27866;48.146;17.098;2023-03-13T15:56:39;98858.97;;;19.25
42197;BMP280;27866;48.146;17.098;2023-03-13T16:00:51;98861.47;;;19.18
42197;BMP280;27866;48.146;17.098;2023-03-13T16:05:03;98864.75;;;19.20
42197;BMP280;27866;48.146;17.098;2023-03-13T16:09:14;98860.63;;;19.04
42197;BMP280;27866;48.146;17.098;2023-03-13T16:13:27;98867.03;;;19.01
42197;BMP280;27866;48.146;17.098;2023-03-13T16:17:40;98856.72;;;19.00
42197;BMP280;27866;48.146;17.098;2023-03-13T16:21:51;98852.66;;;18.98
42197;BMP280;27866;48.146;17.098;2023-03-13T16:26:07;98852.19;;;18.94
42197;BMP280;27866;48.146;17.098;2023-03-13T16:30:28;98855.34;;;18.90
42197;BMP280;27866;48.146;17.098;2023-03-13T16:34:41;98852.25;;;18.86
42197;BMP280;27866;48.146;17.098;2023-03-13T16:38:53;98856.88;;;18.85
42197;BMP280;27866;48.146;17.098;2023-03-13T16:43:04;98857.81;;;18.70
42197;BMP280;27866;48.146;17.098;2023-03-13T16:47:28;98867.88;;;18.58
42197;BMP280;27866;48.146;17.098;2023-03-13T16:51:41;98858.38;;;18.50
42197;BMP280;27866;48.146;17.098;2023-03-13T16:55:52;98871.94;;;18.31
42197;BMP280;27866;48.146;17.098;2023-03-13T17:00:27;98868.44;;;18.17
42197;BMP280;27866;48.146;17.098;2023-03-13T17:04:39;98867.06;;;18.28
42197;BMP280;27866;48.146;17.098;2023-03-13T17:08:50;98866.72;;;18.31
42197;BMP280;27866;48.146;17.098;2023-03-13T17:13:02;98858.88;;;18.24
42197;BMP280;27866;48.146;17.098;2023-03-13T17:17:20;98855.63;;;18.22
42197;BMP280;27866;48.146;17.098;2023-03-13T17:21:33;98856.63;;;18.21
42197;BMP280;27866;48.146;17.098;2023-03-13T17:25:46;98854.66;;;18.23
42197;BMP280;27866;48.146;17.098;2023-03-13T17:29:57;98863.06;;;18.11
42197;BMP280;27866;48.146;17.098;2023-03-13T17:34:09;98854.09;;;18.05
42197;BMP280;27866;48.146;17.098;2023-03-13T17:38:21;98842.59;;;18.06
42197;BMP280;27866;48.146;17.098;2023-03-13T17:42:32;98833.34;;;17.96
42197;BMP280;27866;48.146;17.098;2023-03-13T17:46:47;98837.97;;;17.86
42197;BMP280;27866;48.146;17.098;2023-03-13T17:50:58;98826.25;;;17.75
42197;BMP280;27866;48.146;17.098;2023-03-13T17:55:10;98808.91;;;17.66
42197;BMP280;27866;48.146;17.098;2023-03-13T17:59:21;98809.72;;;17.59
42197;BMP280;27866;48.146;17.098;2023-03-13T18:03:33;98798.03;;;17.47
42197;BMP280;27866;48.146;17.098;2023-03-13T18:07:44;98790.19;;;17.40
42197;BMP280;27866;48.146;17.098;2023-03-13T18:11:56;98789.41;;;17.24
42197;BMP280;27866;48.146;17.098;2023-03-13T18:16:33;98780.47;;;17.11
42197;BMP280;27866;48.146;17.098;2023-03-13T18:20:50;98773.94;;;16.99
42197;BMP280;27866;48.146;17.098;2023-03-13T18:25:01;98754.34;;;16.87
42197;BMP280;27866;48.146;17.098;2023-03-13T18:29:22;98755.00;;;16.74
42197;BMP280;27866;48.146;17.098;2023-03-13T18:33:37;98751.59;;;16.58
42197;BMP280;27866;48.146;17.098;2023-03-13T18:37:48;98743.28;;;16.47
42197;BMP280;27866;48.146;17.098;2023-03-13T18:41:59;98740.66;;;16.39
42197;BMP280;27866;48.146;17.098;2023-03-13T18:46:32;98727.44;;;16.33
42197;BMP280;27866;48.146;17.098;2023-03-13T18:50:44;98718.94;;;16.23
42197;BMP280;27866;48.146;17.098;2023-03-13T18:54:56;98717.81;;;16.18
42197;BMP280;27866;48.146;17.098;2023-03-13T18:59:17;98713.06;;;16.13
42197;BMP280;27866;48.146;17.098;2023-03-13T19:03:29;98718.44;;;16.04
42197;BMP280;27866;48.146;17.098;2023-03-13T19:07:40;98722.03;;;15.88
42197;BMP280;27866;48.146;17.098;2023-03-13T19:11:52;98724.28;;;15.83
42197;BMP280;27866;48.146;17.098;2023-03-13T19:16:30;98721.91;;;15.57
42197;BMP280;27866;48.146;17.098;2023-03-13T19:20:44;98736.56;;;15.50
42197;BMP280;27866;48.146;17.098;2023-03-13T19:24:56;98723.28;;;15.28
42197;BMP280;27866;48.146;17.098;2023-03-13T19:29:17;98729.22;;;15.06
42197;BMP280;27866;48.146;17.098;2023-03-13T19:33:28;98700.53;;;14.98
42197;BMP280;27866;48.146;17.098;2023-03-13T19:37:39;98681.50;;;14.80
42197;BMP280;27866;48.146;17.098;2023-03-13T19:41:52;98684.88;;;14.73
42197;BMP280;27866;48.146;17.098;2023-03-13T19:46:24;98675.25;;;14.74
42197;BMP280;27866;48.146;17.098;2023-03-13T19:50:35;98673.38;;;14.59
42197;BMP280;27866;48.146;17.098;2023-03-13T19:54:47;98679.47;;;14.42
42197;BMP280;27866;48.146;17.098;2023-03-13T19:59:14;98667.88;;;14.37
42197;BMP280;27866;48.146;17.098;2023-03-13T20:03:25;98662.03;;;14.35
42197;BMP280;27866;48.146;17.098;2023-03-13T20:07:38;98660.69;;;14.31
42197;BMP280;27866;48.146;17.098;2023-03-13T20:11:50;98659.41;;;14.35
42197;BMP280;27866;48.146;17.098;2023-03-13T20:16:01;98649.00;;;14.35
42197;BMP280;27866;48.146;17.098;2023-03-13T20:20:13;98648.44;;;14.24
42197;BMP280;27866;48.146;17.098;2023-03-13T20:24:25;98642.19;;;14.17
42197;BMP280;27866;48.146;17.098;2023-03-13T20:28:38;98653.75;;;14.15
42197;BMP280;27866;48.146;17.098;2023-03-13T20:32:49;98657.16;;;13.98
42197;BMP280;27866;48.146;17.098;2023-03-13T20:37:01;98636.88;;;13.85
42197;BMP280;27866;48.146;17.098;2023-03-13T20:41:14;98623.47;;;13.72
42197;BMP280;27866;48.146;17.098;2023-03-13T20:45:35;98600.09;;;13.63
42197;BMP280;27866;48.146;17.098;2023-03-13T20:49:46;98595.16;;;13.52
42197;BMP280;27866;48.146;17.098;2023-03-13T20:53:57;98591.66;;;13.44
42197;BMP280;27866;48.146;17.098;2023-03-13T20:58:09;98584.28;;;13.40
42197;BMP280;27866;48.146;17.098;2023-03-13T21:02:20;98565.22;;;13.32
42197;BMP280;27866;48.146;17.098;2023-03-13T21:06:31;98555.44;;;13.26
42197;BMP280;27866;48.146;17.098;2023-03-13T21:10:43;98554.38;;;13.19
42197;BMP280;27866;48.146;17.098;2023-03-13T21:14:55;98552.50;;;13.12
42197;BMP280;27866;48.146;17.098;2023-03-13T21:19:08;98555.84;;;13.04
42197;BMP280;27866;48.146;17.098;2023-03-13T21:23:19;98545.22;;;12.98
42197;BMP280;27866;48.146;17.098;2023-03-13T21:27:31;98549.25;;;12.93
42197;BMP280;27866;48.146;17.098;2023-03-13T21:31:43;98542.19;;;12.86
42197;BMP280;27866;48.146;17.098;2023-03-13T21:35:54;98538.41;;;12.80
42197;BMP280;27866;48.146;17.098;2023-03-13T21:40:08;98532.28;;;12.72
42197;BMP280;27866;48.146;17.098;2023-03-13T21:44:20;98515.28;;;12.60
42197;BMP280;27866;48.146;17.098;2023-03-13T21:48:31;98523.09;;;12.51
42197;BMP280;27866;48.146;17.098;2023-03-13T21:52:42;98507.16;;;12.46
42197;BMP280;27866;48.146;17.098;2023-03-13T21:56:55;98496.22;;;12.43
42197;BMP280;27866;48.146;17.098;2023-03-13T22:01:07;98491.19;;;12.42
42197;BMP280;27866;48.146;17.098;2023-03-13T22:05:18;98486.28;;;12.39
42197;BMP280;27866;48.146;17.098;2023-03-13T22:09:30;98486.56;;;12.36
42197;BMP280;27866;48.146;17.098;2023-03-13T22:13:41;98475.09;;;12.38
42197;BMP280;27866;48.146;17.098;2023-03-13T22:17:53;98469.06;;;12.38
42197;BMP280;27866;48.146;17.098;2023-03-13T22:22:04;98464.47;;;12.32
42197;BMP280;27866;48.146;17.098;2023-03-13T22:26:15;98459.84;;;12.26
42197;BMP280;27866;48.146;17.098;2023-03-13T22:30:26;98455.22;;;12.20
42197;BMP280;27866;48.146;17.098;2023-03-13T22:34:38;98453.53;;;12.12
42197;BMP280;27866;48.146;17.098;2023-03-13T22:38:54;98446.03;;;12.09
42197;BMP280;27866;48.146;17.098;2023-03-13T22:43:06;98427.47;;;12.04
42197;BMP280;27866;48.146;17.098;2023-03-13T22:47:17;98437.84;;;12.04
42197;BMP280;27866;48.146;17.098;2023-03-13T22:51:28;98428.56;;;12.11
42197;BMP280;27866;48.146;17.098;2023-03-13T22:55:39;98431.94;;;12.11
42197;BMP280;27866;48.146;17.098;2023-03-13T22:59:51;98416.63;;;12.17
42197;BMP280;27866;48.146;17.098;2023-03-13T23:04:03;98383.41;;;12.21
42197;BMP280;27866;48.146;17.098;2023-03-13T23:08:16;98387.56;;;12.14
42197;BMP280;27866;48.146;17.098;2023-03-13T23:12:27;98385.13;;;12.13
42197;BMP280;27866;48.146;17.098;2023-03-13T23:16:40;98388.81;;;12.10
42197;BMP280;27866;48.146;17.098;2023-03-13T23:20:52;98360.19;;;12.02
42197;BMP280;27866;48.146;17.098;2023-03-13T23:25:04;98339.19;;;11.96
42197;BMP280;27866;48.146;17.098;2023-03-13T23:29:15;98324.88;;;11.92
42197;BMP280;27866;48.146;17.098;2023-03-13T23:33:28;98323.69;;;11.87
42197;BMP280;27866;48.146;17.098;2023-03-13T23:37:39;98314.75;;;11.82
42197;BMP280;27866;48.146;17.098;2023-03-13T23:41:50;98293.59;;;11.77
42197;BMP280;27866;48.146;17.098;2023-03-13T23:46:03;98292.88;;;11.67
42197;BMP280;27866;48.146;17.098;2023-03-13T23:50:15;98284.19;;;11.59
42197;BMP280;27866;48.146;17.098;2023-03-13T23:54:26;98274.38;;;11.53
42197;BMP280;27866;48.146;17.098;2023-03-13T23:58:38;98271.94;;;11.52
